Time;durP1;ratioP1;P1;durP2;ratioP2;P2;SDS_P1;SDS_P2;PMS_P1;PMS_P2;Temp;Humidity;BMP_temperature;BMP_pressure;BME280_temperature;BME280_humidity;BME280_pressure;Samples;Min_cycle;Max_cycle;Signal;HPM_P1;HPM_P2
2024/01/13 00:02:12;;;;;;;43.47;20.07;;;;;;;-1.91;72.24;100801.88;4964153;28;20689;-82
2024/01/13 00:04:38;;;;;;;27.13;18.77;;;;;;;-1.92;72.02;100792.41;4968185;28;20222;-79
2024/01/13 00:07:03;;;;;;;34.70;16.97;;;;;;;-1.90;72.48;100782.13;4967979;28;20213;-77
2024/01/13 00:09:29;;;;;;;55.90;33.33;;;;;;;-1.89;72.15;100786.41;4964014;28;20763;-82
2024/01/13 00:11:54;;;;;;;49.30;25.73;;;;;;;-1.90;72.61;100776.97;4965331;28;20239;-82
2024/01/13 00:14:20;;;;;;;28.97;19.43;;;;;;;-1.96;72.52;100775.25;4966658;28;20295;-78
2024/01/13 00:16:45;;;;;;;30.93;19.43;;;;;;;-1.99;72.27;100779.53;4966203;28;20206;-81
2024/01/13 00:19:10;;;;;;;29.17;19.00;;;;;;;-2.01;72.58;100774.34;4965734;28;20228;-82
2024/01/13 00:21:36;;;;;;;58.47;20.07;;;;;;;-1.99;72.52;100771.78;4965671;28;20866;-78
2024/01/13 00:24:01;;;;;;;33.53;16.90;;;;;;;-1.96;72.49;100772.66;4966981;28;20236;-81
2024/01/13 00:26:27;;;;;;;37.97;20.20;;;;;;;-1.93;72.31;100767.53;4967489;28;20986;-78
2024/01/13 00:28:53;;;;;;;16.08;12.13;;;;;;;-1.91;72.42;100773.56;4955470;28;20253;-82
2024/01/13 00:31:18;;;;;;;23.90;13.43;;;;;;;-1.91;72.20;100770.13;4965181;28;20213;-77
2024/01/13 00:33:44;;;;;;;26.20;14.10;;;;;;;-1.89;72.00;100764.13;4966897;28;20252;-79
2024/01/13 00:36:10;;;;;;;29.10;16.17;;;;;;;-1.85;71.90;100762.44;4965871;28;20204;-82
2024/01/13 00:38:35;;;;;;;16.80;10.65;;;;;;;-1.79;72.09;100757.31;4967441;28;20261;-82
2024/01/13 00:41:05;;;;;;;33.90;18.30;;;;;;;-1.71;71.79;100755.63;4967525;28;20238;-81
2024/01/13 00:43:30;;;;;;;27.55;13.48;;;;;;;-1.69;71.51;100755.66;4966645;28;20840;-82
2024/01/13 00:45:56;;;;;;;29.37;16.50;;;;;;;-1.70;71.61;100757.38;4963836;28;20305;-82
2024/01/13 00:48:21;;;;;;;30.40;17.63;;;;;;;-1.72;71.14;100748.75;4967775;28;20205;-77
2024/01/13 00:50:47;;;;;;;40.63;25.23;;;;;;;-1.82;71.48;100750.41;4967178;28;20213;-81
2024/01/13 00:53:12;;;;;;;27.33;15.20;;;;;;;-1.84;71.69;100752.13;4966030;28;20958;-80
2024/01/13 00:55:37;;;;;;;25.20;12.57;;;;;;;-1.88;71.76;100752.97;4965593;28;20212;-79
2024/01/13 00:58:03;;;;;;;22.47;12.13;;;;;;;-1.90;71.84;100748.66;4964829;28;20209;-79
2024/01/13 01:00:28;;;;;;;33.20;19.20;;;;;;;-1.95;72.22;100756.34;4964829;28;21065;-80
2024/01/13 01:02:54;;;;;;;42.20;23.70;;;;;;;-2.10;72.67;100753.69;4962390;28;21259;-81
2024/01/13 01:05:19;;;;;;;29.80;13.47;;;;;;;-2.05;72.24;100742.59;4968494;28;20698;-80
2024/01/13 01:07:45;;;;;;;37.60;20.48;;;;;;;-2.03;72.33;100743.44;4966370;28;20472;-78
2024/01/13 01:10:10;;;;;;;38.37;21.70;;;;;;;-2.03;72.45;100742.56;4968710;28;20209;-81
2024/01/13 01:12:35;;;;;;;23.80;13.93;;;;;;;-2.00;72.63;100737.44;4972638;28;20307;-79
2024/01/13 01:15:01;;;;;;;30.60;17.73;;;;;;;-1.96;72.71;100741.75;4968593;28;21010;-82
2024/01/13 01:17:26;;;;;;;35.70;18.57;;;;;;;-1.92;72.52;100746.06;4968702;28;20534;-78
2024/01/13 01:19:52;;;;;;;31.17;14.83;;;;;;;-1.87;72.46;100743.53;4972783;28;20239;-82
2024/01/13 01:22:17;;;;;;;25.27;12.53;;;;;;;-1.82;72.17;100750.41;4969985;28;20574;-81
2024/01/13 01:24:42;;;;;;;31.00;14.87;;;;;;;-1.79;72.22;100742.69;4970431;28;20697;-79
2024/01/13 01:27:08;;;;;;;28.70;15.90;;;;;;;-1.74;72.43;100741.88;4969095;28;20197;-80
2024/01/13 01:29:33;;;;;;;31.60;16.80;;;;;;;-1.74;72.16;100749.59;4968470;28;20967;-82
2024/01/13 01:31:59;;;;;;;35.17;17.70;;;;;;;-1.74;72.27;100745.31;4967120;28;20662;-83
2024/01/13 01:34:24;;;;;;;33.63;16.80;;;;;;;-1.71;72.10;100749.63;4970568;28;20197;-78
2024/01/13 01:36:49;;;;;;;39.50;14.90;;;;;;;-1.70;71.97;100749.63;4967435;28;20240;-82
2024/01/13 01:39:15;;;;;;;47.33;29.13;;;;;;;-1.67;72.03;100748.78;4968469;28;20452;-78
2024/01/13 01:41:40;;;;;;;36.70;20.00;;;;;;;-1.64;72.40;100743.66;4968112;28;20468;-81
2024/01/13 01:44:05;;;;;;;37.70;20.37;;;;;;;-1.63;72.39;100743.63;4968097;28;20299;-78
2024/01/13 01:46:31;;;;;;;28.13;15.80;;;;;;;-1.65;72.24;100737.59;4968039;28;20288;-81
2024/01/13 01:48:58;;;;;;;36.33;19.80;;;;;;;-1.67;72.53;100741.91;4971107;28;20213;-79
2024/01/13 01:51:25;;;;;;;30.42;18.23;;;;;;;-1.67;72.40;100726.47;4969377;28;20225;-81
2024/01/13 01:53:52;;;;;;;38.42;17.10;;;;;;;-1.66;72.45;100735.03;4967609;28;20198;-82
2024/01/13 01:56:21;;;;;;;37.75;16.25;;;;;;;-1.68;72.21;100729.03;4967979;28;20304;-79
2024/01/13 01:58:47;;;;;;;31.60;17.35;;;;;;;-1.71;72.09;100727.28;4969770;28;20210;-78
2024/01/13 02:01:14;;;;;;;36.65;19.08;;;;;;;-1.73;72.13;100713.53;4968592;28;20209;-82
2024/01/13 02:03:40;;;;;;;36.08;21.65;;;;;;;-1.74;72.12;100721.28;4969221;28;20209;-79
2024/01/13 02:06:06;;;;;;;39.53;19.80;;;;;;;-1.74;72.25;100718.69;4969195;28;20604;-81
2024/01/13 02:08:32;;;;;;;44.85;26.10;;;;;;;-1.71;72.04;100714.41;4970680;28;20487;-84
2024/01/13 02:10:58;;;;;;;35.95;20.35;;;;;;;-1.71;72.35;100700.69;4969037;28;20216;-79
2024/01/13 02:13:23;;;;;;;34.33;18.23;;;;;;;-1.72;72.62;100702.41;4969657;28;20213;-79
2024/01/13 02:15:49;;;;;;;40.83;20.10;;;;;;;-1.74;72.38;100706.66;4969071;28;20672;-81
2024/01/13 02:18:14;;;;;;;37.10;20.53;;;;;;;-1.85;72.35;100703.19;4969408;28;20740;-82
2024/01/13 02:20:39;;;;;;;34.13;17.90;;;;;;;-1.86;72.30;100701.50;4967656;28;20233;-81
2024/01/13 02:23:05;;;;;;;41.10;19.47;;;;;;;-1.91;72.70;100698.88;4970107;28;20209;-77
2024/01/13 02:25:30;;;;;;;34.63;17.63;;;;;;;-1.90;72.83;100697.16;4970045;28;21098;-81
2024/01/13 02:27:55;;;;;;;43.70;20.03;;;;;;;-1.90;72.27;100687.72;4964063;28;20225;-80
2024/01/13 02:30:21;;;;;;;43.77;21.27;;;;;;;-1.90;72.76;100680.00;4967582;28;20276;-79
2024/01/13 02:32:46;;;;;;;33.87;18.43;;;;;;;-1.87;72.71;100680.00;4966234;28;20612;-79
2024/01/13 02:35:12;;;;;;;28.60;15.43;;;;;;;-1.89;72.56;100670.53;4965834;28;20214;-82
2024/01/13 02:37:37;;;;;;;35.60;19.77;;;;;;;-1.87;72.61;100674.00;4968762;28;20480;-78
2024/01/13 02:40:03;;;;;;;41.77;19.67;;;;;;;-1.84;72.44;100666.28;4968058;28;20232;-78
2024/01/13 02:42:28;;;;;;;43.87;21.90;;;;;;;-1.84;72.59;100658.56;4967334;28;20262;-78
2024/01/13 02:44:53;;;;;;;40.53;23.10;;;;;;;-1.86;72.26;100653.41;4965623;28;20907;-82
2024/01/13 02:47:26;;;;;;;30.17;16.13;;;;;;;-1.83;72.53;100639.69;4965221;28;20286;-79
2024/01/13 02:49:52;;;;;;;26.55;15.02;;;;;;;-1.86;72.89;100637.09;4966060;28;20238;-81
2024/01/13 02:52:17;;;;;;;39.57;20.07;;;;;;;-1.87;72.43;100631.06;4968611;28;20589;-83
2024/01/13 02:54:42;;;;;;;32.00;16.03;;;;;;;-1.87;72.54;100632.78;4967002;28;20218;-80
2024/01/13 02:57:08;;;;;;;39.13;17.40;;;;;;;-1.87;72.61;100619.91;4967775;28;20234;-81
2024/01/13 02:59:33;;;;;;;41.90;19.60;;;;;;;-1.91;72.76;100619.06;4966434;28;20302;-81
2024/01/13 03:01:59;;;;;;;27.10;15.80;;;;;;;-1.93;72.71;100610.47;4962915;28;20761;-81
2024/01/13 03:04:24;;;;;;;29.57;15.87;;;;;;;-1.94;72.88;100620.78;4966265;28;20218;-80
2024/01/13 03:06:49;;;;;;;39.53;19.00;;;;;;;-1.94;72.71;100610.47;4965525;28;20913;-82
2024/01/13 03:09:15;;;;;;;36.00;18.77;;;;;;;-1.93;72.93;100609.59;4967838;28;20319;-77
2024/01/13 03:11:40;;;;;;;40.50;16.73;;;;;;;-1.89;72.90;100621.63;4965611;28;20232;-78
2024/01/13 03:14:06;;;;;;;42.07;17.50;;;;;;;-1.85;72.88;100616.50;4965515;28;20210;-78
2024/01/13 03:16:31;;;;;;;34.53;16.23;;;;;;;-1.85;72.75;100615.63;4965991;28;20210;-82
2024/01/13 03:18:56;;;;;;;30.90;15.03;;;;;;;-1.87;72.62;100613.03;4964346;28;20214;-79
2024/01/13 03:21:22;;;;;;;36.20;14.87;;;;;;;-1.86;73.02;100603.63;4967048;28;20235;-78
2024/01/13 03:23:48;;;;;;;36.20;15.60;;;;;;;-1.84;72.51;100607.06;4966691;28;20747;-83
2024/01/13 03:26:13;;;;;;;35.87;16.93;;;;;;;-1.86;72.64;100608.78;4965863;28;20219;-78
2024/01/13 03:28:39;;;;;;;28.60;16.30;;;;;;;-1.88;72.70;100610.50;4963788;28;20213;-78
2024/01/13 03:31:04;;;;;;;24.47;15.47;;;;;;;-1.90;72.88;100607.88;4964778;28;20685;-79
2024/01/13 03:33:29;;;;;;;33.40;16.87;;;;;;;-1.94;72.52;100611.34;4964166;28;20766;-82
2024/01/13 03:35:55;;;;;;;34.07;17.43;;;;;;;-1.97;72.68;100610.44;4962501;28;20234;-78
2024/01/13 03:38:20;;;;;;;45.50;24.38;;;;;;;-1.97;72.85;100607.88;4961279;28;20512;-82
2024/01/13 03:40:46;;;;;;;42.93;21.33;;;;;;;-2.06;73.40;100606.97;4958728;28;20241;-77
2024/01/13 03:43:11;;;;;;;37.17;20.67;;;;;;;-2.09;73.12;100604.38;4959306;28;20203;-82
2024/01/13 03:45:36;;;;;;;30.07;18.37;;;;;;;-2.07;73.61;100605.25;4963801;28;20213;-81
2024/01/13 03:48:02;;;;;;;32.57;18.27;;;;;;;-2.03;73.54;100611.28;4960286;28;20291;-80
2024/01/13 03:50:27;;;;;;;41.50;17.50;;;;;;;-2.07;73.02;100618.13;4957532;28;20241;-83
2024/01/13 03:52:53;;;;;;;30.30;14.23;;;;;;;-2.06;73.36;100614.69;4966933;28;21206;-81
2024/01/13 03:55:19;;;;;;;33.70;16.13;;;;;;;-2.05;73.42;100619.00;4966076;28;20222;-78
2024/01/13 03:57:44;;;;;;;28.50;15.83;;;;;;;-2.10;73.51;100614.69;4969029;28;20471;-78
2024/01/13 04:00:10;;;;;;;26.03;14.33;;;;;;;-2.09;73.35;100613.84;4967022;28;20617;-81
2024/01/13 04:02:35;;;;;;;17.80;7.57;;;;;;;-2.12;73.61;100622.41;4964984;28;20208;-79
2024/01/13 04:05:01;;;;;;;14.03;8.73;;;;;;;-2.18;73.63;100618.97;4967311;28;21695;-79
2024/01/13 04:07:26;;;;;;;28.30;13.17;;;;;;;-2.19;73.76;100614.66;4965458;28;21279;-78
2024/01/13 04:09:51;;;;;;;30.97;15.23;;;;;;;-2.20;73.54;100615.50;4964249;28;20546;-80
2024/01/13 04:12:17;;;;;;;29.67;16.70;;;;;;;-2.20;73.18;100616.38;4966092;28;20231;-79
2024/01/13 04:14:42;;;;;;;34.93;19.87;;;;;;;-2.22;73.42;100618.91;4961206;28;20219;-81
2024/01/13 04:17:08;;;;;;;37.80;16.97;;;;;;;-2.23;73.37;100624.06;4959627;28;20904;-81
2024/01/13 04:19:33;;;;;;;31.50;14.97;;;;;;;-2.20;73.88;100624.09;4959737;28;20229;-84
2024/01/13 04:21:58;;;;;;;21.53;10.10;;;;;;;-2.15;73.47;100622.41;4960281;28;20246;-78
2024/01/13 04:24:24;;;;;;;26.30;10.47;;;;;;;-2.13;72.99;100624.97;4961183;28;20240;-81
2024/01/13 04:26:49;;;;;;;24.80;11.00;;;;;;;-2.14;73.55;100612.94;4960890;28;20208;-83
2024/01/13 04:29:15;;;;;;;25.90;15.00;;;;;;;-2.11;73.50;100618.97;4957452;28;20234;-78
2024/01/13 04:31:41;;;;;;;20.40;13.00;;;;;;;-2.08;73.50;100620.69;4957584;28;20233;-79
2024/01/13 04:34:06;;;;;;;24.87;9.67;;;;;;;-2.08;73.47;100618.13;4962250;28;20220;-82
2024/01/13 04:36:31;;;;;;;23.60;9.77;;;;;;;-2.12;73.13;100624.13;4958963;28;20219;-81
2024/01/13 04:38:57;;;;;;;34.35;16.80;;;;;;;-2.12;73.50;100617.25;4958801;28;22069;-78
2024/01/13 04:41:22;;;;;;;19.63;10.63;;;;;;;-2.10;73.76;100610.41;4959207;28;20213;-77
2024/01/13 04:43:48;;;;;;;22.23;9.23;;;;;;;-2.06;73.97;100611.28;4965741;28;20248;-82
2024/01/13 04:46:14;;;;;;;17.03;9.30;;;;;;;-2.01;73.81;100613.00;4968897;28;20206;-82
2024/01/13 04:48:39;;;;;;;25.17;13.45;;;;;;;-1.97;73.67;100607.88;4976723;28;20220;-77
2024/01/13 04:51:05;;;;;;;18.93;13.03;;;;;;;-1.98;73.40;100603.56;4974063;28;20230;-78
2024/01/13 04:53:30;;;;;;;19.93;11.27;;;;;;;-1.97;73.42;100610.44;4971689;28;20212;-81
2024/01/13 04:55:57;;;;;;;22.27;10.13;;;;;;;-1.96;73.52;100612.19;4969548;28;20605;-77
2024/01/13 04:58:22;;;;;;;21.73;11.57;;;;;;;-1.97;73.12;100613.91;4968514;28;20704;-80
2024/01/13 05:00:47;;;;;;;23.80;11.70;;;;;;;-1.98;73.24;100619.88;4968383;28;20217;-82
2024/01/13 05:03:13;;;;;;;18.53;7.00;;;;;;;-1.96;72.98;100622.47;4970237;28;21136;-81
2024/01/13 05:05:38;;;;;;;23.40;11.10;;;;;;;-1.98;73.22;100617.31;4968791;28;20185;-77
2024/01/13 05:08:04;;;;;;;30.20;16.17;;;;;;;-1.96;73.30;100614.75;4969113;28;20476;-81
2024/01/13 05:10:30;;;;;;;23.50;10.87;;;;;;;-1.97;73.21;100621.63;4969307;28;20220;-82
2024/01/13 05:12:55;;;;;;;20.07;10.13;;;;;;;-1.98;73.43;100616.44;4971212;28;20562;-81
2024/01/13 05:15:20;;;;;;;23.73;10.47;;;;;;;-1.98;73.19;100629.31;4971411;28;20220;-78
2024/01/13 05:17:46;;;;;;;27.30;13.47;;;;;;;-2.06;73.30;100627.56;4966228;28;20212;-82
2024/01/13 05:20:12;;;;;;;23.87;9.93;;;;;;;-2.08;73.31;100631.00;4983525;23;20278;-85
2024/01/13 05:22:37;;;;;;;22.77;13.73;;;;;;;-2.08;73.62;100624.16;4955755;28;20220;-85
2024/01/13 05:25:03;;;;;;;22.20;15.10;;;;;;;-2.07;73.31;100610.41;4968993;28;20723;-85
2024/01/13 05:27:28;;;;;;;23.33;13.20;;;;;;;-2.05;73.26;100615.59;4977265;28;20314;-85
2024/01/13 05:29:54;;;;;;;22.53;14.23;;;;;;;-2.04;73.24;100610.41;4967557;28;20479;-85
2024/01/13 05:32:19;;;;;;;17.67;12.23;;;;;;;-2.06;73.49;100606.13;4982929;28;20217;-84
2024/01/13 05:34:45;;;;;;;13.70;7.60;;;;;;;-2.08;73.73;100602.66;4972439;28;20213;-85
2024/01/13 05:37:10;;;;;;;20.57;13.00;;;;;;;-2.09;73.27;100617.25;4981953;28;20209;-85
2024/01/13 05:39:35;;;;;;;21.03;10.93;;;;;;;-2.15;73.56;100609.53;4981448;28;20213;-85
2024/01/13 05:42:01;;;;;;;25.43;10.80;;;;;;;-2.20;73.75;100608.63;4982377;28;20225;-84
2024/01/13 05:44:26;;;;;;;20.50;9.80;;;;;;;-2.21;73.73;100604.34;4982709;28;20223;-85
2024/01/13 05:46:52;;;;;;;17.33;8.87;;;;;;;-2.20;73.41;100602.63;4983766;28;20629;-85
2024/01/13 05:49:20;;;;;;;18.03;12.90;;;;;;;-2.28;73.40;100600.03;4983908;28;20744;-85
2024/01/13 05:51:46;;;;;;;15.20;7.18;;;;;;;-2.34;73.88;100600.00;4987390;28;20216;-86
2024/01/13 05:54:11;;;;;;;12.63;8.00;;;;;;;-2.36;74.10;100599.13;4988869;28;20213;-85
2024/01/13 05:56:36;;;;;;;27.17;12.17;;;;;;;-2.35;73.95;100596.56;4989543;28;20684;-85
2024/01/13 05:59:02;;;;;;;16.83;8.27;;;;;;;-2.34;74.09;100590.56;4986060;28;20215;-85
2024/01/13 06:01:31;;;;;;;14.33;6.73;;;;;;;-2.31;73.72;100592.28;4986688;28;20732;-85
2024/01/13 06:03:56;;;;;;;9.20;5.43;;;;;;;-2.36;73.87;100589.69;4968343;28;20479;-84
2024/01/13 06:06:22;;;;;;;13.67;8.47;;;;;;;-2.43;74.04;100584.50;4987051;28;20209;-84
2024/01/13 06:08:47;;;;;;;42.95;19.15;;;;;;;-2.45;74.05;100581.94;4984251;28;20496;-85
2024/01/13 06:11:15;;;;;;;38.03;16.20;;;;;;;-2.43;74.31;100587.06;4983367;28;20828;-85
2024/01/13 06:13:40;;;;;;;30.95;12.13;;;;;;;-2.41;74.42;100588.81;4987522;28;20505;-85
2024/01/13 06:16:05;;;;;;;23.00;12.07;;;;;;;-2.41;74.33;100590.53;4978168;28;20330;-85
2024/01/13 06:18:31;;;;;;;24.27;13.57;;;;;;;-2.43;74.61;100585.38;4983326;28;20223;-84
2024/01/13 06:20:56;;;;;;;27.20;10.57;;;;;;;-2.43;74.41;100581.94;4988531;28;20326;-83
2024/01/13 06:23:22;;;;;;;15.17;9.37;;;;;;;-2.43;74.51;100584.50;4986935;28;20849;-84
2024/01/13 06:25:48;;;;;;;16.17;10.80;;;;;;;-2.43;74.23;100587.97;4972341;28;20203;-85
2024/01/13 06:28:14;;;;;;;11.65;7.97;;;;;;;-2.41;74.19;100593.94;4973698;28;20211;-85
2024/01/13 06:30:39;;;;;;;24.50;12.43;;;;;;;-2.37;74.42;100585.41;4985134;28;20624;-85
2024/01/13 06:33:05;;;;;;;34.97;14.90;;;;;;;-2.38;74.24;100593.13;4981533;28;20228;-85
2024/01/13 06:35:30;;;;;;;17.97;10.47;;;;;;;-2.37;74.37;100587.13;4979975;28;20282;-84
2024/01/13 06:37:56;;;;;;;30.02;14.50;;;;;;;-2.36;74.16;100581.13;4976676;28;20504;-85
2024/01/13 06:40:21;;;;;;;16.30;10.53;;;;;;;-2.34;74.08;100572.56;4976652;28;20238;-84
2024/01/13 06:42:47;;;;;;;36.50;15.47;;;;;;;-2.32;74.16;100583.72;4974495;28;20601;-85
2024/01/13 06:45:12;;;;;;;35.83;18.03;;;;;;;-2.43;74.17;100577.69;4985368;28;20215;-84
2024/01/13 06:47:40;;;;;;;22.43;10.10;;;;;;;-2.48;74.24;100580.22;4986675;28;20233;-85
2024/01/13 06:50:07;;;;;;;36.10;18.27;;;;;;;-2.49;74.48;100580.19;4994548;28;20234;-85
2024/01/13 06:52:33;;;;;;;33.92;14.88;;;;;;;-2.48;74.60;100581.94;4978917;28;20226;-85
2024/01/13 06:54:58;;;;;;;36.40;15.40;;;;;;;-2.47;74.47;100579.34;4983358;28;20908;-84
2024/01/13 06:57:23;;;;;;;28.00;13.40;;;;;;;-2.45;74.53;100585.38;4984004;28;20500;-84
2024/01/13 06:59:49;;;;;;;29.57;13.27;;;;;;;-2.39;74.57;100586.25;4980849;28;20730;-85
2024/01/13 07:02:14;;;;;;;27.37;14.43;;;;;;;-2.35;74.42;100588.88;4980782;28;20208;-84
2024/01/13 07:04:40;;;;;;;25.97;13.70;;;;;;;-2.33;73.97;100588.84;4981477;28;20235;-84
2024/01/13 07:07:06;;;;;;;39.10;20.10;;;;;;;-2.28;73.94;100590.59;4976393;28;20494;-85
2024/01/13 07:09:31;;;;;;;25.03;13.00;;;;;;;-2.26;74.19;100593.19;4981367;28;20235;-84
2024/01/13 07:11:57;;;;;;;28.50;14.20;;;;;;;-2.28;74.32;100587.16;4981109;28;20307;-84
2024/01/13 07:14:23;;;;;;;27.83;13.93;;;;;;;-2.29;74.41;100582.88;4964356;28;20492;-85
2024/01/13 07:16:48;;;;;;;14.57;9.63;;;;;;;-2.30;74.43;100594.84;4983174;28;20218;-86
2024/01/13 07:19:15;;;;;;;39.40;15.77;;;;;;;-2.36;74.11;100589.69;4978307;28;20226;-85
2024/01/13 07:21:41;;;;;;;20.45;12.20;;;;;;;-2.36;74.06;100599.97;4988470;28;20237;-84
2024/01/13 07:24:08;;;;;;;26.73;10.82;;;;;;;-2.38;74.12;100588.81;4983468;28;20236;-84
2024/01/13 07:26:41;;;;;;;25.27;11.02;;;;;;;-2.37;74.43;100585.41;4998950;28;20997;-84
2024/01/13 07:29:07;;;;;;;26.23;12.52;;;;;;;-2.39;74.00;100586.25;4986597;28;20217;-84
2024/01/13 07:31:32;;;;;;;14.93;8.50;;;;;;;-2.43;74.33;100579.34;4986041;28;20794;-84
2024/01/13 07:33:58;;;;;;;32.40;14.80;;;;;;;-2.42;74.29;100591.38;4985104;28;20467;-84
2024/01/13 07:36:28;;;;;;;38.20;16.83;;;;;;;-2.39;74.22;100591.41;4983621;28;21044;-84
2024/01/13 07:38:55;;;;;;;31.77;12.90;;;;;;;-2.36;74.39;100584.56;4995688;28;20213;-82
2024/01/13 07:41:21;;;;;;;21.80;12.20;;;;;;;-2.36;74.42;100592.25;4986999;28;20354;-82
2024/01/13 07:43:49;;;;;;;22.27;10.23;;;;;;;-2.33;74.80;100588.84;4985840;28;20737;-83
2024/01/13 07:46:14;;;;;;;28.27;12.50;;;;;;;-2.31;74.53;100600.88;4987441;28;20216;-83
2024/01/13 07:48:40;;;;;;;33.53;16.50;;;;;;;-2.26;74.40;100599.19;4989030;28;20215;-82
2024/01/13 07:51:05;;;;;;;35.73;15.73;;;;;;;-2.22;74.15;100590.59;4984443;28;20219;-83
2024/01/13 07:53:31;;;;;;;33.33;11.50;;;;;;;-2.17;74.11;100590.63;4987128;28;20335;-82
2024/01/13 07:55:56;;;;;;;24.40;10.70;;;;;;;-2.18;73.72;100594.06;4985905;28;20688;-82
2024/01/13 07:58:22;;;;;;;20.90;11.13;;;;;;;-2.19;73.64;100589.75;4986106;28;20217;-82
2024/01/13 08:00:47;;;;;;;45.40;20.93;;;;;;;-2.18;73.82;100598.38;4984099;28;20232;-85
2024/01/13 08:03:13;;;;;;;33.53;14.97;;;;;;;-2.18;73.72;100586.34;4983563;28;20219;-82
2024/01/13 08:05:42;;;;;;;37.42;15.57;;;;;;;-2.16;73.71;100578.63;4984793;28;20472;-83
2024/01/13 08:08:10;;;;;;;30.02;18.40;;;;;;;-2.19;73.76;100568.31;4984322;28;20790;-83
2024/01/13 08:10:38;;;;;;;29.50;11.50;;;;;;;-2.20;73.93;100587.19;4987929;28;20645;-83
2024/01/13 08:13:04;;;;;;;32.58;15.90;;;;;;;-2.24;73.95;100587.19;4986949;28;20219;-84
2024/01/13 08:15:29;;;;;;;15.18;6.45;;;;;;;-2.27;74.12;100571.75;4986214;28;20224;-83
2024/01/13 08:17:55;;;;;;;31.20;15.10;;;;;;;-2.27;74.04;100565.72;4985690;28;20209;-84
2024/01/13 08:20:20;;;;;;;22.53;12.80;;;;;;;-2.30;74.17;100576.00;4984156;28;20228;-83
2024/01/13 08:22:46;;;;;;;37.53;16.07;;;;;;;-2.30;73.88;100573.41;4987098;28;20212;-83
2024/01/13 08:25:12;;;;;;;29.00;13.33;;;;;;;-2.32;74.08;100575.13;4967421;28;20782;-84
2024/01/13 08:27:38;;;;;;;15.63;9.30;;;;;;;-2.32;74.03;100568.28;4987594;28;20701;-84
2024/01/13 08:30:04;;;;;;;14.23;7.50;;;;;;;-2.36;73.63;100581.13;4986031;28;20267;-87
2024/01/13 08:32:30;;;;;;;21.77;9.63;;;;;;;-2.42;73.87;100576.81;4986178;28;20265;-82
2024/01/13 08:34:55;;;;;;;21.20;10.30;;;;;;;-2.40;74.30;100580.25;4986050;28;20220;-83
2024/01/13 08:37:21;;;;;;;45.60;23.50;;;;;;;-2.38;74.18;100573.38;4986244;28;20493;-82
2024/01/13 08:39:47;;;;;;;35.00;17.95;;;;;;;-2.38;74.39;100564.81;4987574;28;20215;-84
2024/01/13 08:42:12;;;;;;;29.40;15.93;;;;;;;-2.38;74.54;100568.22;4987029;28;20210;-82
2024/01/13 08:44:40;;;;;;;22.00;14.20;;;;;;;-2.33;74.39;100581.97;4989722;28;20690;-85
2024/01/13 08:47:06;;;;;;;22.05;14.15;;;;;;;-2.31;74.45;100564.84;4975261;28;20209;-85
2024/01/13 08:49:31;;;;;;;35.97;15.00;;;;;;;-2.30;74.04;100574.28;4985357;28;20201;-82
2024/01/13 08:51:57;;;;;;;29.30;9.80;;;;;;;-2.29;74.11;100562.28;4986499;28;20213;-82
2024/01/13 08:54:23;;;;;;;28.80;12.50;;;;;;;-2.29;73.81;100564.88;4988032;28;20228;-84
2024/01/13 08:56:52;;;;;;;38.65;15.68;;;;;;;-2.28;74.09;100551.13;4987322;28;20240;-83
2024/01/13 08:59:18;;;;;;;35.30;16.90;;;;;;;-2.27;73.95;100543.44;4990374;28;20197;-82
2024/01/13 09:01:43;;;;;;;40.07;17.90;;;;;;;-2.28;74.21;100543.41;4986623;28;20204;-83
2024/01/13 09:04:09;;;;;;;38.03;17.07;;;;;;;-2.26;74.26;100541.72;4985935;28;20219;-85
2024/01/13 09:06:35;;;;;;;53.33;21.42;;;;;;;-2.23;74.44;100542.56;4985130;28;20494;-84
2024/01/13 09:09:04;;;;;;;47.42;24.65;;;;;;;-2.18;74.36;100540.03;4986590;28;20478;-82
2024/01/13 09:11:30;;;;;;;54.58;18.75;;;;;;;-2.14;74.65;100544.31;4983848;28;20227;-84
2024/01/13 09:13:55;;;;;;;41.57;16.23;;;;;;;-2.12;74.64;100540.03;4986027;28;20214;-80
2024/01/13 09:16:20;;;;;;;27.60;12.07;;;;;;;-2.10;74.74;100535.75;4986141;28;20305;-83
2024/01/13 09:18:46;;;;;;;36.33;13.10;;;;;;;-2.09;74.47;100540.03;4989307;28;20202;-83
2024/01/13 09:21:12;;;;;;;26.60;14.33;;;;;;;-2.06;74.36;100537.47;4988468;28;20594;-82
2024/01/13 09:23:40;;;;;;;27.77;14.95;;;;;;;-2.05;74.43;100544.34;4989909;28;20234;-82
2024/01/13 09:26:05;;;;;;;30.00;14.25;;;;;;;-2.03;74.28;100560.63;4986662;28;20280;-84
2024/01/13 09:28:33;;;;;;;13.00;9.93;;;;;;;-2.03;74.07;100570.09;4989999;28;20221;-81
2024/01/13 09:30:58;;;;;;;34.08;11.60;;;;;;;-2.03;73.97;100559.78;4991511;28;20476;-82
2024/01/13 09:33:24;;;;;;;30.60;10.90;;;;;;;-2.04;74.36;100553.78;4993861;28;21001;-84
2024/01/13 09:35:53;;;;;;;37.90;18.00;;;;;;;-2.04;74.12;100548.63;4988228;28;21103;-82
2024/01/13 09:38:19;;;;;;;53.47;23.25;;;;;;;-2.05;74.13;100570.09;4990819;28;20986;-83
2024/01/13 09:40:46;;;;;;;30.17;16.00;;;;;;;-2.04;74.29;100568.38;4986447;28;20243;-81
2024/01/13 09:43:22;;;;;;;17.05;9.20;;;;;;;-2.03;74.29;100575.22;4989651;28;20207;-82
2024/01/13 09:45:51;;;;;;;23.27;13.70;;;;;;;-2.03;74.48;100576.09;4977717;28;20607;-83
2024/01/13 09:48:19;;;;;;;19.10;10.02;;;;;;;-2.03;74.20;100578.66;4982557;28;20205;-83
2024/01/13 09:50:54;;;;;;;20.67;11.20;;;;;;;-2.03;74.23;100570.94;4985922;28;20215;-82
2024/01/13 09:53:22;;;;;;;44.63;15.30;;;;;;;-2.03;74.07;100573.50;4971149;28;20232;-82
2024/01/13 09:55:53;;;;;;;20.83;14.95;;;;;;;-2.02;74.18;100584.69;4983698;28;20544;-81
2024/01/13 09:58:18;;;;;;;23.73;14.00;;;;;;;-2.02;73.85;100582.97;4982644;28;20223;-83
2024/01/13 10:00:44;;;;;;;31.90;15.23;;;;;;;-2.04;74.03;100582.09;4983936;28;20537;-82
2024/01/13 10:03:10;;;;;;;23.13;10.73;;;;;;;-2.07;73.81;100579.53;4984988;28;20227;-83
2024/01/13 10:05:36;;;;;;;25.80;13.33;;;;;;;-2.06;73.91;100580.38;4984332;28;20297;-82
2024/01/13 10:08:01;;;;;;;32.27;15.53;;;;;;;-2.07;73.76;100583.81;4980285;28;20454;-83
2024/01/13 10:10:28;;;;;;;29.37;10.53;;;;;;;-2.08;73.74;100580.41;4982640;28;20218;-81
2024/01/13 10:12:54;;;;;;;34.92;13.55;;;;;;;-2.05;73.72;100567.53;4983931;28;20250;-81
2024/01/13 10:15:19;;;;;;;18.07;10.00;;;;;;;-2.03;73.83;100568.38;4986949;28;20223;-81
2024/01/13 10:17:45;;;;;;;28.70;12.70;;;;;;;-2.04;73.53;100564.09;4986985;28;20222;-81
2024/01/13 10:20:16;;;;;;;28.35;8.27;;;;;;;-2.06;73.37;100558.06;4984395;28;20501;-81
2024/01/13 10:22:42;;;;;;;30.60;13.85;;;;;;;-2.07;73.81;100558.94;4986663;28;20279;-82
2024/01/13 10:25:08;;;;;;;24.20;11.52;;;;;;;-2.07;73.69;100556.34;4984937;28;20817;-81
2024/01/13 10:27:37;;;;;;;20.67;10.10;;;;;;;-2.07;73.64;100553.78;4987023;28;20226;-82
2024/01/13 10:30:07;;;;;;;24.17;11.25;;;;;;;-2.07;73.65;100543.50;4983817;28;20576;-79
2024/01/13 10:32:33;;;;;;;17.73;10.30;;;;;;;-2.07;73.31;100533.19;4986461;28;20222;-78
2024/01/13 10:34:59;;;;;;;29.90;10.07;;;;;;;-2.08;73.42;100536.63;4991084;28;20326;-81
2024/01/13 10:37:26;;;;;;;15.03;8.30;;;;;;;-2.08;73.28;100536.63;4990648;28;20322;-82
2024/01/13 10:39:52;;;;;;;30.48;16.73;;;;;;;-2.13;73.31;100534.88;4985652;28;20576;-83
2024/01/13 10:42:24;;;;;;;27.63;12.80;;;;;;;-2.15;73.44;100529.75;4988215;28;20710;-85
2024/01/13 10:44:56;;;;;;;32.83;17.48;;;;;;;-2.20;73.48;100528.84;4990967;28;20218;-85
2024/01/13 10:47:29;;;;;;;25.08;11.93;;;;;;;-2.18;73.78;100521.16;4980179;28;20328;-85
2024/01/13 10:49:55;;;;;;;30.90;13.05;;;;;;;-2.12;74.01;100516.00;4980640;28;20322;-85
2024/01/13 10:52:31;;;;;;;22.58;11.85;;;;;;;-2.06;73.66;100513.44;4994078;28;20739;-84
2024/01/13 10:55:01;;;;;;;22.75;10.65;;;;;;;-2.04;73.48;100506.59;4994483;28;20230;-85
2024/01/13 10:57:28;;;;;;;34.08;16.30;;;;;;;-2.03;73.50;100493.72;4994651;28;20293;-85
2024/01/13 10:59:54;;;;;;;23.40;12.63;;;;;;;-2.01;73.39;100492.00;4994254;28;20226;-84
2024/01/13 11:02:20;;;;;;;28.52;13.30;;;;;;;-2.00;73.72;100482.56;4996307;28;20246;-84
2024/01/13 11:04:46;;;;;;;33.40;15.23;;;;;;;-1.98;73.22;100475.72;4993639;28;20220;-83